sensor_id;sensor_type;location;lat;lon;timestamp;pressure;altitude;pressure_sealevel;temperature;humidity
9740;BME280;4909;42.680;26.324;2022-11-02T00:01:53;99148.72;;;14.99;77.23
9740;BME280;4909;42.680;26.324;2022-11-02T00:04:20;99133.31;;;15.04;77.04
9740;BME280;4909;42.680;26.324;2022-11-02T00:06:46;99142.84;;;14.93;77.41
9740;BME280;4909;42.680;26.324;2022-11-02T00:09:15;99144.88;;;14.88;77.64
9740;BME280;4909;42.680;26.324;2022-11-02T00:11:41;99137.13;;;14.83;78.03
9740;BME280;4909;42.680;26.324;2022-11-02T00:14:08;99143.66;;;14.77;78.52
9740;BME280;4909;42.680;26.324;2022-11-02T00:16:36;99135.81;;;14.74;78.46
9740;BME280;4909;42.680;26.324;2022-11-02T00:19:06;99131.19;;;14.94;77.42
9740;BME280;4909;42.680;26.324;2022-11-02T00:21:34;99125.78;;;14.95;77.40
9740;BME280;4909;42.680;26.324;2022-11-02T00:24:02;99128.28;;;14.98;77.36
9740;BME280;4909;42.680;26.324;2022-11-02T00:26:32;99127.91;;;14.89;77.32
9740;BME280;4909;42.680;26.324;2022-11-02T00:29:00;99123.50;;;14.88;77.47
9740;BME280;4909;42.680;26.324;2022-11-02T00:31:27;99122.00;;;14.99;77.05
9740;BME280;4909;42.680;26.324;2022-11-02T00:33:54;99076.97;;;14.76;76.70
9740;BME280;4909;42.680;26.324;2022-11-02T00:36:21;99127.41;;;14.98;76.94
9740;BME280;4909;42.680;26.324;2022-11-02T00:38:49;99121.09;;;14.83;77.43
9740;BME280;4909;42.680;26.324;2022-11-02T00:41:17;99121.78;;;14.87;77.25
9740;BME280;4909;42.680;26.324;2022-11-02T00:43:45;99118.84;;;14.91;76.97
9740;BME280;4909;42.680;26.324;2022-11-02T00:46:11;99114.13;;;14.96;77.23
9740;BME280;4909;42.680;26.324;2022-11-02T00:48:38;99116.97;;;14.93;77.34
9740;BME280;4909;42.680;26.324;2022-11-02T00:51:05;99112.06;;;14.86;77.27
9740;BME280;4909;42.680;26.324;2022-11-02T00:53:32;99102.81;;;14.91;77.08
9740;BME280;4909;42.680;26.324;2022-11-02T00:55:59;99102.66;;;14.94;77.00
9740;BME280;4909;42.680;26.324;2022-11-02T00:58:25;99103.69;;;14.76;77.91
9740;BME280;4909;42.680;26.324;2022-11-02T01:00:53;99097.22;;;14.80;77.74
9740;BME280;4909;42.680;26.324;2022-11-02T01:03:21;99089.63;;;14.88;77.18
9740;BME280;4909;42.680;26.324;2022-11-02T01:05:48;99090.69;;;14.86;77.23
9740;BME280;4909;42.680;26.324;2022-11-02T01:08:15;99091.06;;;14.78;77.86
9740;BME280;4909;42.680;26.324;2022-11-02T01:10:41;99084.78;;;14.79;77.72
9740;BME280;4909;42.680;26.324;2022-11-02T01:13:08;99088.03;;;14.68;78.34
9740;BME280;4909;42.680;26.324;2022-11-02T01:15:35;99080.06;;;14.84;77.42
9740;BME280;4909;42.680;26.324;2022-11-02T01:18:03;99085.22;;;14.87;77.45
9740;BME280;4909;42.680;26.324;2022-11-02T01:20:30;99072.66;;;14.89;76.92
9740;BME280;4909;42.680;26.324;2022-11-02T01:22:57;99075.41;;;14.88;77.23
9740;BME280;4909;42.680;26.324;2022-11-02T01:25:24;99077.13;;;14.89;77.08
9740;BME280;4909;42.680;26.324;2022-11-02T01:27:51;99076.44;;;14.85;76.99
9740;BME280;4909;42.680;26.324;2022-11-02T01:30:18;99079.44;;;14.79;77.28
9740;BME280;4909;42.680;26.324;2022-11-02T01:32:44;99070.31;;;14.83;76.71
9740;BME280;4909;42.680;26.324;2022-11-02T01:35:12;99071.25;;;14.82;76.96
9740;BME280;4909;42.680;26.324;2022-11-02T01:37:41;99064.00;;;14.68;76.91
9740;BME280;4909;42.680;26.324;2022-11-02T01:40:08;99069.53;;;14.65;77.27
9740;BME280;4909;42.680;26.324;2022-11-02T01:42:35;99065.97;;;14.65;77.77
9740;BME280;4909;42.680;26.324;2022-11-02T01:45:02;99061.56;;;14.64;77.59
9740;BME280;4909;42.680;26.324;2022-11-02T01:47:32;99053.81;;;14.59;77.89
9740;BME280;4909;42.680;26.324;2022-11-02T01:50:05;99053.63;;;14.62;77.68
9740;BME280;4909;42.680;26.324;2022-11-02T01:52:36;99058.78;;;14.50;78.29
9740;BME280;4909;42.680;26.324;2022-11-02T01:55:08;99053.44;;;14.50;78.17
9740;BME280;4909;42.680;26.324;2022-11-02T01:57:37;99058.28;;;14.59;77.67
9740;BME280;4909;42.680;26.324;2022-11-02T02:00:07;99039.47;;;14.45;78.41
9740;BME280;4909;42.680;26.324;2022-11-02T02:02:38;99028.38;;;14.35;78.30
9740;BME280;4909;42.680;26.324;2022-11-02T02:05:10;99054.59;;;14.61;77.66
9740;BME280;4909;42.680;26.324;2022-11-02T02:07:40;99047.28;;;14.65;77.74
9740;BME280;4909;42.680;26.324;2022-11-02T02:10:07;99041.25;;;14.61;77.23
9740;BME280;4909;42.680;26.324;2022-11-02T02:12:35;99025.38;;;14.58;76.76
9740;BME280;4909;42.680;26.324;2022-11-02T02:15:04;99038.56;;;14.61;76.55
9740;BME280;4909;42.680;26.324;2022-11-02T02:17:39;99054.25;;;14.67;76.73
9740;BME280;4909;42.680;26.324;2022-11-02T02:20:12;99053.38;;;14.67;77.00
9740;BME280;4909;42.680;26.324;2022-11-02T02:23:15;99057.78;;;14.68;76.72
9740;BME280;4909;42.680;26.324;2022-11-02T02:28:46;99053.47;;;14.65;76.75
9740;BME280;4909;42.680;26.324;2022-11-02T02:31:18;99046.03;;;14.55;77.09
9740;BME280;4909;42.680;26.324;2022-11-02T02:33:50;99057.28;;;14.61;76.84
9740;BME280;4909;42.680;26.324;2022-11-02T02:36:21;99029.72;;;14.44;77.23
9740;BME280;4909;42.680;26.324;2022-11-02T02:38:57;99053.72;;;14.28;77.65
9740;BME280;4909;42.680;26.324;2022-11-02T02:41:32;99053.59;;;14.29;77.94
9740;BME280;4909;42.680;26.324;2022-11-02T02:44:04;99060.44;;;14.35;77.83
9740;BME280;4909;42.680;26.324;2022-11-02T02:46:35;99058.00;;;14.48;77.49
9740;BME280;4909;42.680;26.324;2022-11-02T02:49:06;99056.13;;;14.50;77.33
9740;BME280;4909;42.680;26.324;2022-11-02T02:51:36;99064.31;;;14.47;77.53
9740;BME280;4909;42.680;26.324;2022-11-02T02:54:10;99064.06;;;14.51;77.17
9740;BME280;4909;42.680;26.324;2022-11-02T02:56:40;99060.84;;;14.45;77.50
9740;BME280;4909;42.680;26.324;2022-11-02T02:59:15;99062.56;;;14.46;77.37
9740;BME280;4909;42.680;26.324;2022-11-02T03:01:44;99062.56;;;14.46;77.20
9740;BME280;4909;42.680;26.324;2022-11-02T03:04:11;99056.78;;;14.38;77.63
9740;BME280;4909;42.680;26.324;2022-11-02T03:06:40;99057.22;;;14.28;77.81
9740;BME280;4909;42.680;26.324;2022-11-02T03:09:09;99049.16;;;14.13;78.33
9740;BME280;4909;42.680;26.324;2022-11-02T03:11:45;99054.81;;;13.89;79.46
9740;BME280;4909;42.680;26.324;2022-11-02T03:14:24;99006.63;;;13.75;79.29
9740;BME280;4909;42.680;26.324;2022-11-02T03:17:04;99049.06;;;13.80;79.98
9740;BME280;4909;42.680;26.324;2022-11-02T03:19:40;99051.94;;;13.94;79.32
9740;BME280;4909;42.680;26.324;2022-11-02T03:22:17;99054.19;;;14.02;79.13
9740;BME280;4909;42.680;26.324;2022-11-02T03:24:50;99016.63;;;13.89;78.81
9740;BME280;4909;42.680;26.324;2022-11-02T03:27:23;99055.59;;;14.09;78.43
9740;BME280;4909;42.680;26.324;2022-11-02T03:30:00;99051.72;;;14.14;78.29
9740;BME280;4909;42.680;26.324;2022-11-02T03:32:35;99049.25;;;14.11;78.46
9740;BME280;4909;42.680;26.324;2022-11-02T03:35:10;99055.50;;;14.10;78.44
9740;BME280;4909;42.680;26.324;2022-11-02T03:37:40;99045.06;;;14.06;79.02
9740;BME280;4909;42.680;26.324;2022-11-02T03:40:12;99056.38;;;14.11;78.75
9740;BME280;4909;42.680;26.324;2022-11-02T03:42:42;99039.66;;;14.07;78.45
9740;BME280;4909;42.680;26.324;2022-11-02T03:45:12;99059.03;;;14.11;78.51
9740;BME280;4909;42.680;26.324;2022-11-02T03:47:41;99053.16;;;14.04;78.71
9740;BME280;4909;42.680;26.324;2022-11-02T03:50:11;99050.81;;;13.98;79.23
9740;BME280;4909;42.680;26.324;2022-11-02T03:52:41;99046.59;;;13.94;78.89
9740;BME280;4909;42.680;26.324;2022-11-02T03:55:13;99049.25;;;14.11;78.20
9740;BME280;4909;42.680;26.324;2022-11-02T03:57:45;99045.78;;;14.09;78.60
9740;BME280;4909;42.680;26.324;2022-11-02T04:00:15;99049.31;;;14.10;78.22
9740;BME280;4909;42.680;26.324;2022-11-02T04:02:44;99050.97;;;14.12;78.34
9740;BME280;4909;42.680;26.324;2022-11-02T04:05:12;99043.34;;;14.05;78.20
9740;BME280;4909;42.680;26.324;2022-11-02T04:07:42;99039.91;;;14.03;78.42
9740;BME280;4909;42.680;26.324;2022-11-02T04:10:28;99045.69;;;14.11;77.90
9740;BME280;4909;42.680;26.324;2022-11-02T04:12:55;99043.09;;;14.09;77.36
9740;BME280;4909;42.680;26.324;2022-11-02T04:15:41;99039.19;;;14.16;76.87
9740;BME280;4909;42.680;26.324;2022-11-02T04:18:08;99036.00;;;13.92;77.06
9740;BME280;4909;42.680;26.324;2022-11-02T04:20:52;99033.38;;;13.91;77.45
9740;BME280;4909;42.680;26.324;2022-11-02T04:23:19;99026.19;;;13.93;77.12
9740;BME280;4909;42.680;26.324;2022-11-02T04:26:04;99030.66;;;13.92;77.45
9740;BME280;4909;42.680;26.324;2022-11-02T04:28:30;99030.41;;;13.97;77.54
9740;BME280;4909;42.680;26.324;2022-11-02T04:30:58;99030.25;;;14.00;77.60
9740;BME280;4909;42.680;26.324;2022-11-02T04:33:25;99020.84;;;13.93;77.72
9740;BME280;4909;42.680;26.324;2022-11-02T04:35:58;99021.94;;;13.89;78.06
9740;BME280;4909;42.680;26.324;2022-11-02T04:38:25;99029.84;;;13.90;78.17
9740;BME280;4909;42.680;26.324;2022-11-02T04:41:07;99029.97;;;13.89;78.48
9740;BME280;4909;42.680;26.324;2022-11-02T04:43:53;99030.25;;;13.83;78.58
9740;BME280;4909;42.680;26.324;2022-11-02T04:46:23;99023.50;;;13.76;78.99
9740;BME280;4909;42.680;26.324;2022-11-02T04:48:50;99029.78;;;13.92;78.23
9740;BME280;4909;42.680;26.324;2022-11-02T04:51:19;99029.63;;;13.78;78.45
9740;BME280;4909;42.680;26.324;2022-11-02T04:53:46;99032.88;;;13.84;78.36
9740;BME280;4909;42.680;26.324;2022-11-02T04:56:13;99028.47;;;13.83;78.50
9740;BME280;4909;42.680;26.324;2022-11-02T04:58:40;99033.31;;;13.75;78.65
9740;BME280;4909;42.680;26.324;2022-11-02T05:01:10;99032.44;;;13.75;78.78
9740;BME280;4909;42.680;26.324;2022-11-02T05:03:39;99034.72;;;13.82;78.41
9740;BME280;4909;42.680;26.324;2022-11-02T05:06:06;99040.25;;;13.79;78.29
9740;BME280;4909;42.680;26.324;2022-11-02T05:08:34;99035.50;;;13.67;78.65
9740;BME280;4909;42.680;26.324;2022-11-02T05:11:01;99033.53;;;13.71;78.59
9740;BME280;4909;42.680;26.324;2022-11-02T05:13:28;99035.72;;;13.80;78.26
9740;BME280;4909;42.680;26.324;2022-11-02T05:15:56;99036.31;;;13.69;78.21
9740;BME280;4909;42.680;26.324;2022-11-02T05:18:23;99044.06;;;13.74;78.20
9740;BME280;4909;42.680;26.324;2022-11-02T05:20:52;99037.84;;;13.56;79.00
9740;BME280;4909;42.680;26.324;2022-11-02T05:23:20;99042.28;;;13.74;78.31
9740;BME280;4909;42.680;26.324;2022-11-02T05:25:54;99043.81;;;13.61;78.81
9740;BME280;4909;42.680;26.324;2022-11-02T05:28:21;99041.53;;;13.71;78.75
9740;BME280;4909;42.680;26.324;2022-11-02T05:30:49;99036.22;;;13.71;78.38
9740;BME280;4909;42.680;26.324;2022-11-02T05:33:16;99045.38;;;13.65;78.64
9740;BME280;4909;42.680;26.324;2022-11-02T05:35:43;99043.50;;;13.67;78.66
9740;BME280;4909;42.680;26.324;2022-11-02T05:38:11;99043.75;;;13.63;78.92
9740;BME280;4909;42.680;26.324;2022-11-02T05:40:38;99045.88;;;13.73;78.79
9740;BME280;4909;42.680;26.324;2022-11-02T05:43:06;99049.34;;;13.92;77.97
9740;BME280;4909;42.680;26.324;2022-11-02T05:45:33;99052.22;;;14.05;77.28
9740;BME280;4909;42.680;26.324;2022-11-02T05:48:01;99048.03;;;14.34;75.92
9740;BME280;4909;42.680;26.324;2022-11-02T05:50:28;99048.53;;;14.42;75.48
9740;BME280;4909;42.680;26.324;2022-11-02T05:52:55;99053.38;;;14.51;75.37
9740;BME280;4909;42.680;26.324;2022-11-02T05:55:23;99052.00;;;14.60;74.67
9740;BME280;4909;42.680;26.324;2022-11-02T05:57:51;99063.59;;;14.76;73.65
9740;BME280;4909;42.680;26.324;2022-11-02T06:00:18;99062.22;;;14.85;73.19
9740;BME280;4909;42.680;26.324;2022-11-02T06:02:46;99060.41;;;15.01;72.62
9740;BME280;4909;42.680;26.324;2022-11-02T06:05:12;99063.69;;;15.21;71.71
9740;BME280;4909;42.680;26.324;2022-11-02T06:07:39;99060.00;;;15.55;70.20
9740;BME280;4909;42.680;26.324;2022-11-02T06:10:07;99059.88;;;15.73;69.54
9740;BME280;4909;42.680;26.324;2022-11-02T06:12:35;99065.19;;;15.88;68.75
9740;BME280;4909;42.680;26.324;2022-11-02T06:15:02;99062.19;;;16.08;67.96
9740;BME280;4909;42.680;26.324;2022-11-02T06:17:35;99060.75;;;16.17;67.86
9740;BME280;4909;42.680;26.324;2022-11-02T06:20:03;99059.38;;;16.26;66.94
9740;BME280;4909;42.680;26.324;2022-11-02T06:22:30;99065.13;;;16.48;66.37
9740;BME280;4909;42.680;26.324;2022-11-02T06:24:57;99068.56;;;16.50;66.12
9740;BME280;4909;42.680;26.324;2022-11-02T06:27:24;99057.66;;;16.53;66.21
9740;BME280;4909;42.680;26.324;2022-11-02T06:29:52;99067.75;;;16.78;65.13
9740;BME280;4909;42.680;26.324;2022-11-02T06:32:19;99064.09;;;16.93;64.45
9740;BME280;4909;42.680;26.324;2022-11-02T06:34:45;99063.78;;;17.12;63.69
9740;BME280;4909;42.680;26.324;2022-11-02T06:37:12;99072.72;;;17.39;62.48
9740;BME280;4909;42.680;26.324;2022-11-02T06:39:39;99074.53;;;17.79;60.62
9740;BME280;4909;42.680;26.324;2022-11-02T06:42:06;99067.41;;;18.05;59.89
9740;BME280;4909;42.680;26.324;2022-11-02T06:44:32;99078.31;;;18.42;57.55
9740;BME280;4909;42.680;26.324;2022-11-02T06:47:00;99069.31;;;18.55;57.17
9740;BME280;4909;42.680;26.324;2022-11-02T06:49:27;99073.72;;;18.82;55.99
9740;BME280;4909;42.680;26.324;2022-11-02T06:51:54;99073.47;;;19.59;53.75
9740;BME280;4909;42.680;26.324;2022-11-02T06:54:21;99073.06;;;20.35;51.76
9740;BME280;4909;42.680;26.324;2022-11-02T06:56:47;99065.66;;;21.05;49.08
9740;BME280;4909;42.680;26.324;2022-11-02T06:59:14;99062.91;;;21.50;47.45
9740;BME280;4909;42.680;26.324;2022-11-02T07:01:41;99073.50;;;21.96;45.75
9740;BME280;4909;42.680;26.324;2022-11-02T07:04:09;99063.69;;;22.16;45.05
9740;BME280;4909;42.680;26.324;2022-11-02T07:06:36;99064.56;;;22.37;44.33
9740;BME280;4909;42.680;26.324;2022-11-02T07:09:03;99058.75;;;22.41;44.42
9740;BME280;4909;42.680;26.324;2022-11-02T07:11:29;99045.72;;;23.37;42.09
9740;BME280;4909;42.680;26.324;2022-11-02T07:13:56;99052.38;;;24.02;40.47
9740;BME280;4909;42.680;26.324;2022-11-02T07:16:23;99051.25;;;24.05;40.23
9740;BME280;4909;42.680;26.324;2022-11-02T07:18:50;99048.34;;;24.45;39.50
9740;BME280;4909;42.680;26.324;2022-11-02T07:21:18;99045.97;;;24.32;39.51
9740;BME280;4909;42.680;26.324;2022-11-02T07:23:45;99046.22;;;25.04;37.39
9740;BME280;4909;42.680;26.324;2022-11-02T07:26:12;99047.34;;;26.55;34.30
9740;BME280;4909;42.680;26.324;2022-11-02T07:28:39;98999.59;;;27.86;31.42
9740;BME280;4909;42.680;26.324;2022-11-02T07:31:06;99035.28;;;28.49;30.42
9740;BME280;4909;42.680;26.324;2022-11-02T07:33:32;99032.47;;;30.52;27.62
9740;BME280;4909;42.680;26.324;2022-11-02T07:36:01;99028.00;;;31.98;25.29
9740;BME280;4909;42.680;26.324;2022-11-02T07:38:29;99029.88;;;32.61;24.29
9740;BME280;4909;42.680;26.324;2022-11-02T07:40:56;99035.97;;;33.06;23.43
9740;BME280;4909;42.680;26.324;2022-11-02T07:43:23;99022.34;;;33.26;23.48
9740;BME280;4909;42.680;26.324;2022-11-02T07:45:50;99024.22;;;34.60;21.90
9740;BME280;4909;42.680;26.324;2022-11-02T07:48:16;99019.50;;;35.06;21.17
9740;BME280;4909;42.680;26.324;2022-11-02T07:50:43;99028.19;;;35.16;21.13
9740;BME280;4909;42.680;26.324;2022-11-02T07:53:10;99017.47;;;35.59;20.94
9740;BME280;4909;42.680;26.324;2022-11-02T07:55:39;99016.13;;;36.20;20.23
9740;BME280;4909;42.680;26.324;2022-11-02T07:58:08;99014.31;;;36.00;20.01
9740;BME280;4909;42.680;26.324;2022-11-02T08:00:38;99011.22;;;35.84;20.07
9740;BME280;4909;42.680;26.324;2022-11-02T08:03:07;99011.09;;;36.03;20.09
9740;BME280;4909;42.680;26.324;2022-11-02T08:05:35;99006.38;;;35.02;20.61
9740;BME280;4909;42.680;26.324;2022-11-02T08:08:03;99003.22;;;34.59;21.24
9740;BME280;4909;42.680;26.324;2022-11-02T08:10:32;99003.72;;;35.40;20.61
9740;BME280;4909;42.680;26.324;2022-11-02T08:13:00;98995.34;;;36.04;19.87
9740;BME280;4909;42.680;26.324;2022-11-02T08:15:27;98996.59;;;36.08;20.07
9740;BME280;4909;42.680;26.324;2022-11-02T08:18:04;98995.38;;;36.35;19.64
9740;BME280;4909;42.680;26.324;2022-11-02T08:20:34;98984.78;;;36.82;19.38
9740;BME280;4909;42.680;26.324;2022-11-02T08:23:01;98962.25;;;36.53;19.33
9740;BME280;4909;42.680;26.324;2022-11-02T08:25:29;98994.75;;;36.65;19.16
9740;BME280;4909;42.680;26.324;2022-11-02T08:27:56;98990.56;;;36.24;20.15
9740;BME280;4909;42.680;26.324;2022-11-02T08:30:25;98981.94;;;36.14;19.99
9740;BME280;4909;42.680;26.324;2022-11-02T08:32:52;98974.31;;;36.03;19.96
9740;BME280;4909;42.680;26.324;2022-11-02T08:35:19;98983.53;;;36.28;19.55
9740;BME280;4909;42.680;26.324;2022-11-02T08:37:52;98977.16;;;34.74;20.83
9740;BME280;4909;42.680;26.324;2022-11-02T08:40:19;98977.53;;;34.98;20.83
9740;BME280;4909;42.680;26.324;2022-11-02T08:42:46;98972.91;;;34.65;20.76
9740;BME280;4909;42.680;26.324;2022-11-02T08:45:13;98972.91;;;34.78;20.77
9740;BME280;4909;42.680;26.324;2022-11-02T08:47:41;98969.94;;;34.60;21.32
9740;BME280;4909;42.680;26.324;2022-11-02T08:50:09;98969.50;;;34.24;21.25
9740;BME280;4909;42.680;26.324;2022-11-02T08:52:36;98968.19;;;33.87;21.47
9740;BME280;4909;42.680;26.324;2022-11-02T08:55:04;98967.41;;;34.26;21.07
9740;BME280;4909;42.680;26.324;2022-11-02T08:57:31;98955.72;;;34.17;21.73
9740;BME280;4909;42.680;26.324;2022-11-02T08:59:58;98948.47;;;33.83;21.61
9740;BME280;4909;42.680;26.324;2022-11-02T09:02:25;98955.84;;;33.70;22.01
9740;BME280;4909;42.680;26.324;2022-11-02T09:04:53;98946.56;;;33.23;22.39
9740;BME280;4909;42.680;26.324;2022-11-02T09:07:20;98945.22;;;32.71;23.04
9740;BME280;4909;42.680;26.324;2022-11-02T09:09:47;98946.97;;;32.30;23.43
9740;BME280;4909;42.680;26.324;2022-11-02T09:12:13;98944.72;;;31.55;24.21
9740;BME280;4909;42.680;26.324;2022-11-02T09:14:40;98935.19;;;30.86;25.08
9740;BME280;4909;42.680;26.324;2022-11-02T09:17:07;98934.78;;;30.07;26.11
9740;BME280;4909;42.680;26.324;2022-11-02T09:19:33;98938.19;;;29.64;26.90
9740;BME280;4909;42.680;26.324;2022-11-02T09:22:02;98933.00;;;29.46;27.09
9740;BME280;4909;42.680;26.324;2022-11-02T09:24:28;98930.94;;;28.70;28.28
9740;BME280;4909;42.680;26.324;2022-11-02T09:26:55;98924.88;;;28.36;28.85
9740;BME280;4909;42.680;26.324;2022-11-02T09:29:22;98916.03;;;27.61;29.83
9740;BME280;4909;42.680;26.324;2022-11-02T09:31:49;98908.78;;;27.36;30.91
9740;BME280;4909;42.680;26.324;2022-11-02T09:34:15;98911.31;;;27.13;31.36
9740;BME280;4909;42.680;26.324;2022-11-02T09:36:42;98906.25;;;26.84;31.83
9740;BME280;4909;42.680;26.324;2022-11-02T09:39:10;98904.97;;;26.62;32.75
9740;BME280;4909;42.680;26.324;2022-11-02T09:41:42;98902.09;;;26.12;33.96
9740;BME280;4909;42.680;26.324;2022-11-02T09:44:16;98906.06;;;26.00;34.21
9740;BME280;4909;42.680;26.324;2022-11-02T09:46:46;98904.50;;;25.72;34.65
9740;BME280;4909;42.680;26.324;2022-11-02T09:49:15;98897.28;;;25.45;35.54
9740;BME280;4909;42.680;26.324;2022-11-02T09:51:44;98887.16;;;25.20;36.30
9740;BME280;4909;42.680;26.324;2022-11-02T09:54:17;98896.56;;;25.25;36.32
9740;BME280;4909;42.680;26.324;2022-11-02T09:56:45;98890.47;;;24.96;36.70
9740;BME280;4909;42.680;26.324;2022-11-02T09:59:15;98889.63;;;25.13;36.58
9740;BME280;4909;42.680;26.324;2022-11-02T10:01:50;98883.66;;;25.09;36.31
9740;BME280;4909;42.680;26.324;2022-11-02T10:07:34;98881.88;;;24.73;37.21
9740;BME280;4909;42.680;26.324;2022-11-02T10:10:10;98872.75;;;24.64;38.03
9740;BME280;4909;42.680;26.324;2022-11-02T10:12:46;98869.22;;;24.64;38.12
9740;BME280;4909;42.680;26.324;2022-11-02T10:15:19;98867.03;;;24.67;38.21
9740;BME280;4909;42.680;26.324;2022-11-02T10:17:50;98867.91;;;24.68;38.42
9740;BME280;4909;42.680;26.324;2022-11-02T10:20:24;98867.09;;;24.58;38.72
9740;BME280;4909;42.680;26.324;2022-11-02T10:22:53;98862.13;;;24.53;39.02
9740;BME280;4909;42.680;26.324;2022-11-02T10:25:22;98862.41;;;24.50;39.37
9740;BME280;4909;42.680;26.324;2022-11-02T10:27:55;98858.78;;;24.59;39.23
9740;BME280;4909;42.680;26.324;2022-11-02T10:30:27;98854.56;;;24.20;40.86
9740;BME280;4909;42.680;26.324;2022-11-02T10:32:54;98833.41;;;24.14;40.95
9740;BME280;4909;42.680;26.324;2022-11-02T10:35:30;98849.75;;;23.95;41.89
9740;BME280;4909;42.680;26.324;2022-11-02T10:38:14;98844.16;;;24.06;41.57
9740;BME280;4909;42.680;26.324;2022-11-02T10:41:00;98839.00;;;24.03;41.76
9740;BME280;4909;42.680;26.324;2022-11-02T10:43:39;98840.84;;;24.12;42.39
9740;BME280;4909;42.680;26.324;2022-11-02T10:46:24;98815.53;;;23.84;43.05
9740;BME280;4909;42.680;26.324;2022-11-02T10:48:59;98841.13;;;24.09;42.51
9740;BME280;4909;42.680;26.324;2022-11-02T10:51:30;98826.03;;;23.97;43.05
9740;BME280;4909;42.680;26.324;2022-11-02T10:53:57;98832.34;;;23.88;43.32
9740;BME280;4909;42.680;26.324;2022-11-02T10:56:29;98811.16;;;23.35;44.61
9740;BME280;4909;42.680;26.324;2022-11-02T10:59:00;98817.31;;;23.37;45.62
9740;BME280;4909;42.680;26.324;2022-11-02T11:01:29;98821.13;;;23.63;45.02
9740;BME280;4909;42.680;26.324;2022-11-02T11:03:58;98767.56;;;23.57;44.17
9740;BME280;4909;42.680;26.324;2022-11-02T11:06:27;98812.72;;;23.76;43.97
9740;BME280;4909;42.680;26.324;2022-11-02T11:09:00;98820.31;;;23.53;45.45
9740;BME280;4909;42.680;26.324;2022-11-02T11:11:32;98787.94;;;23.61;44.63
9740;BME280;4909;42.680;26.324;2022-11-02T11:14:02;98816.00;;;23.70;45.12
9740;BME280;4909;42.680;26.324;2022-11-02T11:16:32;98801.25;;;23.82;44.54
9740;BME280;4909;42.680;26.324;2022-11-02T11:19:00;98799.34;;;24.02;44.41
9740;BME280;4909;42.680;26.324;2022-11-02T11:21:38;98797.19;;;24.05;43.65
9740;BME280;4909;42.680;26.324;2022-11-02T11:24:24;98802.69;;;23.86;44.58
9740;BME280;4909;42.680;26.324;2022-11-02T11:29:53;98786.34;;;24.05;43.85
9740;BME280;4909;42.680;26.324;2022-11-02T11:32:22;98797.59;;;24.20;43.30
9740;BME280;4909;42.680;26.324;2022-11-02T11:34:55;98758.72;;;23.92;43.57
9740;BME280;4909;42.680;26.324;2022-11-02T11:37:23;98786.75;;;24.10;43.69
9740;BME280;4909;42.680;26.324;2022-11-02T11:39:53;98775.06;;;24.10;43.23
9740;BME280;4909;42.680;26.324;2022-11-02T11:42:25;98776.50;;;24.04;43.48
9740;BME280;4909;42.680;26.324;2022-11-02T11:44:57;98746.09;;;23.73;43.95
9740;BME280;4909;42.680;26.324;2022-11-02T11:47:25;98777.63;;;23.74;44.70
9740;BME280;4909;42.680;26.324;2022-11-02T11:49:53;98775.38;;;23.60;45.51
9740;BME280;4909;42.680;26.324;2022-11-02T11:52:23;98772.72;;;23.88;44.14
9740;BME280;4909;42.680;26.324;2022-11-02T11:54:53;98767.25;;;23.97;44.25
9740;BME280;4909;42.680;26.324;2022-11-02T11:57:24;98770.72;;;23.90;44.59
9740;BME280;4909;42.680;26.324;2022-11-02T11:59:53;98767.28;;;23.88;44.63
9740;BME280;4909;42.680;26.324;2022-11-02T12:02:24;98773.56;;;23.88;44.05
9740;BME280;4909;42.680;26.324;2022-11-02T12:04:57;98767.50;;;23.76;44.21
9740;BME280;4909;42.680;26.324;2022-11-02T12:07:56;98763.00;;;23.95;43.89
9740;BME280;4909;42.680;26.324;2022-11-02T12:11:01;98758.66;;;24.02;43.64
9740;BME280;4909;42.680;26.324;2022-11-02T12:13:48;98757.63;;;23.85;43.89
9740;BME280;4909;42.680;26.324;2022-11-02T12:16:24;98758.97;;;23.99;43.63
9740;BME280;4909;42.680;26.324;2022-11-02T12:19:04;98749.31;;;23.96;43.60
9740;BME280;4909;42.680;26.324;2022-11-02T12:21:48;98752.59;;;23.90;43.78
9740;BME280;4909;42.680;26.324;2022-11-02T12:27:21;98734.16;;;23.66;43.82
9740;BME280;4909;42.680;26.324;2022-11-02T12:30:03;98754.03;;;23.85;43.58
9740;BME280;4909;42.680;26.324;2022-11-02T12:32:47;98742.84;;;23.97;42.91
9740;BME280;4909;42.680;26.324;2022-11-02T12:35:30;98744.19;;;23.83;43.55
9740;BME280;4909;42.680;26.324;2022-11-02T12:38:14;98748.78;;;23.73;43.88
9740;BME280;4909;42.680;26.324;2022-11-02T12:40:52;98746.31;;;23.90;43.44
9740;BME280;4909;42.680;26.324;2022-11-02T12:43:35;98752.09;;;24.04;42.83
9740;BME280;4909;42.680;26.324;2022-11-02T12:46:09;98734.44;;;24.00;42.67
9740;BME280;4909;42.680;26.324;2022-11-02T12:48:47;98695.44;;;23.74;42.75
9740;BME280;4909;42.680;26.324;2022-11-02T12:51:20;98732.25;;;23.76;43.68
9740;BME280;4909;42.680;26.324;2022-11-02T12:53:52;98734.53;;;23.81;44.19
9740;BME280;4909;42.680;26.324;2022-11-02T12:56:24;98733.06;;;23.87;43.22
9740;BME280;4909;42.680;26.324;2022-11-02T12:58:54;98738.72;;;23.93;43.24
9740;BME280;4909;42.680;26.324;2022-11-02T13:01:25;98735.88;;;23.95;42.98
9740;BME280;4909;42.680;26.324;2022-11-02T13:03:57;98731.31;;;23.95;42.92
9740;BME280;4909;42.680;26.324;2022-11-02T13:06:30;98721.72;;;24.01;42.75
9740;BME280;4909;42.680;26.324;2022-11-02T13:09:01;98730.06;;;23.90;43.10
9740;BME280;4909;42.680;26.324;2022-11-02T13:11:34;98726.34;;;23.91;43.26
9740;BME280;4909;42.680;26.324;2022-11-02T13:14:03;98727.63;;;23.96;42.61
9740;BME280;4909;42.680;26.324;2022-11-02T13:16:38;98721.00;;;23.99;42.87
9740;BME280;4909;42.680;26.324;2022-11-02T13:19:13;98721.66;;;23.83;43.28
9740;BME280;4909;42.680;26.324;2022-11-02T13:21:45;98715.88;;;23.68;44.04
9740;BME280;4909;42.680;26.324;2022-11-02T13:24:17;98710.63;;;23.67;44.05
9740;BME280;4909;42.680;26.324;2022-11-02T13:26:48;98717.13;;;23.74;43.82
9740;BME280;4909;42.680;26.324;2022-11-02T13:29:18;98723.63;;;23.54;44.15
9740;BME280;4909;42.680;26.324;2022-11-02T13:31:50;98720.06;;;23.53;44.42
9740;BME280;4909;42.680;26.324;2022-11-02T13:34:26;98678.72;;;23.51;43.31
9740;BME280;4909;42.680;26.324;2022-11-02T13:36:54;98698.66;;;23.60;43.56
9740;BME280;4909;42.680;26.324;2022-11-02T13:39:25;98718.81;;;23.85;43.31